createdAt,value
2022-09-15T00:01:14.690Z,13.20
2022-09-15T00:03:42.350Z,13.18
2022-09-15T00:06:10.176Z,13.17
2022-09-15T00:08:37.709Z,13.15
2022-09-15T00:11:20.296Z,13.14
2022-09-15T00:13:47.586Z,13.11
2022-09-15T00:16:16.347Z,13.11
2022-09-15T00:18:45.059Z,13.09
2022-09-15T00:21:17.878Z,13.09
2022-09-15T00:23:45.505Z,13.11
2022-09-15T00:26:16.622Z,13.13
2022-09-15T00:28:44.635Z,13.16
2022-09-15T00:31:16.334Z,13.17
2022-09-15T00:33:48.690Z,13.21
2022-09-15T00:36:17.213Z,13.23
2022-09-15T00:38:44.966Z,13.24
2022-09-15T00:41:16.985Z,13.25
2022-09-15T00:44:00.509Z,13.26
2022-09-15T00:46:32.034Z,13.28
2022-09-15T00:49:11.569Z,13.32
2022-09-15T00:52:08.686Z,13.36
2022-09-15T00:54:44.383Z,13.37
2022-09-15T00:57:35.614Z,13.37
2022-09-15T01:00:09.133Z,13.38
2022-09-15T01:02:38.185Z,13.40
2022-09-15T01:05:11.572Z,13.40
2022-09-15T01:08:28.917Z,13.39
2022-09-15T01:10:56.434Z,13.40
2022-09-15T01:13:23.710Z,13.40
2022-09-15T01:16:17.072Z,13.42
2022-09-15T01:19:09.612Z,13.46
2022-09-15T01:22:11.700Z,13.45
2022-09-15T01:24:56.752Z,13.44
2022-09-15T01:28:08.829Z,13.45
2022-09-15T01:30:42.224Z,13.46
2022-09-15T01:33:28.745Z,13.47
2022-09-15T01:36:09.191Z,13.47
2022-09-15T01:38:56.747Z,13.44
2022-09-15T01:41:45.827Z,13.47
2022-09-15T01:44:26.357Z,13.50
2022-09-15T01:47:00.818Z,13.53
2022-09-15T01:49:38.267Z,13.52
2022-09-15T01:52:05.922Z,13.52
2022-09-15T01:54:44.296Z,13.53
2022-09-15T01:57:11.609Z,13.51
2022-09-15T01:59:38.746Z,13.49
2022-09-15T02:02:35.717Z,13.47
2022-09-15T02:05:18.142Z,13.46
2022-09-15T02:08:25.077Z,13.48
2022-09-15T02:11:22.805Z,13.46
2022-09-15T02:14:17.276Z,13.46
2022-09-15T02:16:52.579Z,13.44
2022-09-15T02:19:41.461Z,13.42
2022-09-15T02:22:23.383Z,13.40
2022-09-15T02:25:11.080Z,13.40
2022-09-15T02:27:46.686Z,13.40
2022-09-15T02:30:18.087Z,13.36
2022-09-15T02:33:06.750Z,13.34
2022-09-15T02:35:36.141Z,13.30
2022-09-15T02:38:09.060Z,13.27
2022-09-15T02:40:41.257Z,13.24
2022-09-15T02:43:15.944Z,13.20
2022-09-15T02:45:43.686Z,13.19
2022-09-15T02:48:10.918Z,13.16
2022-09-15T02:50:39.077Z,13.12
2022-09-15T02:53:06.191Z,13.10
2022-09-15T02:55:33.863Z,13.07
2022-09-15T02:58:01.120Z,13.07
2022-09-15T03:00:29.301Z,13.09
2022-09-15T03:02:57.405Z,13.14
2022-09-15T03:05:28.467Z,13.16
2022-09-15T03:07:57.231Z,13.19
2022-09-15T03:10:25.509Z,13.21
2022-09-15T03:12:54.579Z,13.22
2022-09-15T03:15:25.258Z,13.21
2022-09-15T03:17:54.137Z,13.23
2022-09-15T03:20:30.541Z,13.22
2022-09-15T03:22:57.744Z,13.23
2022-09-15T03:25:26.901Z,13.25
2022-09-15T03:27:54.102Z,13.27
2022-09-15T03:30:21.296Z,13.27
2022-09-15T03:32:48.763Z,13.26
2022-09-15T03:35:16.034Z,13.24
2022-09-15T03:37:43.168Z,13.22
2022-09-15T03:40:10.796Z,13.21
2022-09-15T03:42:38.084Z,13.24
2022-09-15T03:45:05.686Z,13.26
2022-09-15T03:47:33.286Z,13.29
2022-09-15T03:50:00.426Z,13.30
2022-09-15T03:52:32.086Z,13.32
2022-09-15T03:54:59.272Z,13.32
2022-09-15T03:57:26.437Z,13.34
2022-09-15T03:59:53.547Z,13.37
2022-09-15T04:02:20.952Z,13.37
2022-09-15T04:04:49.496Z,13.39
2022-09-15T04:07:16.737Z,13.40
2022-09-15T04:09:43.840Z,13.41
2022-09-15T04:12:10.990Z,13.43
2022-09-15T04:14:38.101Z,13.43
2022-09-15T04:17:05.284Z,13.44
2022-09-15T04:19:32.385Z,13.45
2022-09-15T04:21:59.513Z,13.46
2022-09-15T04:24:26.638Z,13.46
2022-09-15T04:26:54.172Z,13.43
2022-09-15T04:29:21.301Z,13.42
2022-09-15T04:31:48.737Z,13.41
2022-09-15T04:34:15.983Z,13.41
2022-09-15T04:36:43.205Z,13.42
2022-09-15T04:39:10.357Z,13.46
2022-09-15T04:41:37.662Z,13.48
2022-09-15T04:44:04.815Z,13.48
2022-09-15T04:46:32.048Z,13.48
2022-09-15T04:48:59.494Z,13.49
2022-09-15T04:51:27.226Z,13.49
2022-09-15T04:53:54.917Z,13.53
2022-09-15T04:56:25.694Z,13.53
2022-09-15T04:59:03.473Z,13.55
2022-09-15T05:01:35.378Z,13.57
2022-09-15T05:04:04.105Z,13.56
2022-09-15T05:06:32.805Z,13.52
2022-09-15T05:09:00.142Z,13.49
2022-09-15T05:11:28.316Z,13.47
2022-09-15T05:13:55.452Z,13.44
2022-09-15T05:16:26.304Z,13.40
2022-09-15T05:18:59.161Z,13.37
2022-09-15T05:21:27.824Z,13.32
2022-09-15T05:23:55.685Z,13.32
2022-09-15T05:26:26.214Z,13.32
2022-09-15T05:28:53.855Z,13.33
2022-09-15T05:31:27.933Z,13.34
2022-09-15T05:33:55.352Z,13.35
2022-09-15T05:36:25.324Z,13.34
2022-09-15T05:38:56.514Z,13.36
2022-09-15T05:41:24.564Z,13.35
2022-09-15T05:43:53.528Z,13.33
2022-09-15T05:46:20.860Z,13.33
2022-09-15T05:48:48.186Z,13.36
2022-09-15T05:51:15.401Z,13.39
2022-09-15T05:53:42.698Z,13.41
2022-09-15T05:56:12.461Z,13.43
2022-09-15T05:58:42.070Z,13.44
2022-09-15T06:01:29.862Z,13.49
2022-09-15T06:03:58.068Z,13.52
2022-09-15T06:06:26.309Z,13.51
2022-09-15T06:08:58.921Z,13.53
2022-09-15T06:11:33.705Z,13.52
2022-09-15T06:14:03.301Z,13.55
2022-09-15T06:16:35.460Z,13.58
2022-09-15T06:19:04.158Z,13.61
2022-09-15T06:21:33.252Z,13.65
2022-09-15T06:24:03.543Z,13.66
2022-09-15T06:26:30.779Z,13.69
2022-09-15T06:29:01.084Z,13.72
2022-09-15T06:31:31.715Z,13.74
2022-09-15T06:34:00.531Z,13.77
2022-09-15T06:36:30.549Z,13.85
2022-09-15T06:38:58.517Z,13.91
2022-09-15T06:41:26.061Z,13.98
2022-09-15T06:43:53.788Z,14.04
2022-09-15T06:46:25.241Z,14.07
2022-09-15T06:48:53.684Z,14.11
2022-09-15T06:51:24.710Z,14.15
2022-09-15T06:53:53.526Z,14.20
2022-09-15T06:56:23.445Z,14.22
2022-09-15T06:58:51.083Z,14.23
2022-09-15T07:01:31.352Z,14.28
2022-09-15T07:04:01.296Z,14.32
2022-09-15T07:06:30.992Z,14.38
2022-09-15T07:08:59.209Z,14.43
2022-09-15T07:11:26.612Z,14.48
2022-09-15T07:13:53.766Z,14.55
2022-09-15T07:16:22.581Z,14.58
2022-09-15T07:18:49.902Z,14.65
2022-09-15T07:21:20.703Z,14.74
2022-09-15T07:23:49.289Z,14.81
2022-09-15T07:26:23.197Z,14.87
2022-09-15T07:28:55.936Z,14.94
2022-09-15T07:31:26.307Z,15.00
2022-09-15T07:33:54.008Z,15.07
2022-09-15T07:36:21.624Z,15.10
2022-09-15T07:38:50.003Z,15.12
2022-09-15T07:41:27.080Z,15.17
2022-09-15T07:43:56.860Z,15.20
2022-09-15T07:46:26.344Z,15.24
2022-09-15T07:48:57.224Z,15.26
2022-09-15T07:51:25.788Z,15.26
2022-09-15T07:53:54.135Z,15.29
2022-09-15T07:56:23.969Z,15.35
2022-09-15T07:58:51.947Z,15.42
2022-09-15T08:01:22.414Z,15.47
2022-09-15T08:03:52.161Z,15.51
2022-09-15T08:06:23.294Z,15.49
2022-09-15T08:08:53.981Z,15.51
2022-09-15T08:11:23.843Z,15.52
2022-09-15T08:13:52.454Z,15.57
2022-09-15T08:16:24.550Z,15.60
2022-09-15T08:18:54.197Z,15.63
2022-09-15T08:21:22.504Z,15.62
2022-09-15T08:23:56.782Z,15.66
2022-09-15T08:26:25.866Z,15.66
2022-09-15T08:28:53.304Z,15.65
2022-09-15T08:31:20.924Z,15.70
2022-09-15T08:33:52.738Z,15.74
2022-09-15T08:36:20.037Z,15.81
2022-09-15T08:38:50.605Z,15.84
2022-09-15T08:41:28.874Z,15.86
2022-09-15T08:44:20.361Z,15.93
2022-09-15T08:47:09.519Z,15.99
2022-09-15T08:50:28.314Z,16.08
2022-09-15T08:53:16.379Z,16.16
2022-09-15T08:55:55.035Z,16.23
2022-09-15T08:58:30.104Z,16.33
2022-09-15T09:01:28.046Z,16.45
2022-09-15T09:04:35.737Z,16.50
2022-09-15T09:07:46.614Z,16.58
2022-09-15T09:10:39.219Z,16.58
2022-09-15T09:13:12.142Z,16.53
2022-09-15T09:16:04.817Z,16.54
2022-09-15T09:19:23.761Z,16.60
2022-09-15T09:22:08.607Z,16.59
2022-09-15T09:24:44.517Z,16.59
2022-09-15T09:27:19.854Z,16.55
2022-09-15T09:30:18.113Z,16.49
2022-09-15T09:33:07.042Z,16.42
2022-09-15T09:35:52.309Z,16.34
2022-09-15T09:38:36.825Z,16.29
2022-09-15T09:41:25.940Z,16.31
2022-09-15T09:43:56.081Z,16.31
2022-09-15T09:46:23.313Z,16.29
2022-09-15T09:49:03.102Z,16.23
2022-09-15T09:51:39.170Z,16.18
2022-09-15T09:54:16.356Z,16.11
2022-09-15T09:56:50.660Z,16.11
2022-09-15T09:59:41.489Z,16.13
2022-09-15T10:02:11.466Z,16.18
2022-09-15T10:04:59.982Z,16.20
2022-09-15T10:07:27.313Z,16.26
2022-09-15T10:10:00.849Z,16.27
2022-09-15T10:12:41.419Z,16.26
2022-09-15T10:15:26.262Z,16.25
2022-09-15T10:17:56.272Z,16.26
2022-09-15T10:20:45.523Z,16.30
2022-09-15T10:23:18.625Z,16.36
2022-09-15T10:26:01.607Z,16.34
2022-09-15T10:28:28.964Z,16.30
2022-09-15T10:31:13.695Z,16.23
2022-09-15T10:33:44.842Z,16.05
2022-09-15T10:36:28.373Z,15.75
2022-09-15T10:39:19.756Z,15.42
2022-09-15T10:42:20.270Z,15.09
2022-09-15T10:45:18.567Z,14.76
2022-09-15T10:47:49.462Z,14.46
2022-09-15T10:50:28.166Z,14.29
2022-09-15T10:53:27.872Z,14.13
2022-09-15T10:56:12.974Z,14.02
2022-09-15T10:59:29.755Z,13.95
2022-09-15T11:02:42.455Z,13.98
2022-09-15T11:06:13.410Z,14.05
2022-09-15T11:09:00.876Z,14.13
2022-09-15T11:12:05.797Z,14.17
2022-09-15T11:14:50.390Z,14.21
2022-09-15T11:17:39.113Z,14.27
2022-09-15T11:20:25.337Z,14.32
2022-09-15T11:23:17.700Z,14.42
2022-09-15T11:25:53.062Z,14.50
2022-09-15T11:28:40.482Z,14.61
2022-09-15T11:31:34.220Z,14.79
2022-09-15T11:34:17.777Z,14.96
2022-09-15T11:37:38.062Z,15.19
2022-09-15T11:40:25.601Z,15.45
2022-09-15T11:43:00.704Z,15.62
2022-09-15T11:45:35.085Z,15.79
2022-09-15T11:48:20.576Z,15.93
2022-09-15T11:50:52.250Z,16.04
2022-09-15T11:53:37.737Z,16.11
2022-09-15T11:56:42.068Z,16.20
2022-09-15T11:59:31.580Z,16.24
2022-09-15T12:02:25.853Z,16.34
2022-09-15T12:05:26.261Z,16.48
2022-09-15T12:07:59.619Z,16.57
2022-09-15T12:10:37.104Z,16.66
2022-09-15T12:13:05.684Z,16.79
2022-09-15T12:15:33.364Z,16.93
2022-09-15T12:18:40.162Z,17.01
2022-09-15T12:21:56.442Z,17.17
2022-09-15T12:24:49.710Z,17.24
2022-09-15T12:27:20.131Z,17.34
2022-09-15T12:29:59.846Z,17.41
2022-09-15T12:32:33.142Z,17.50
2022-09-15T12:35:13.325Z,17.58
2022-09-15T12:37:54.325Z,17.69
2022-09-15T12:40:30.457Z,17.77
2022-09-15T12:42:57.911Z,17.83
2022-09-15T12:45:31.085Z,17.97
2022-09-15T12:48:11.971Z,18.11
2022-09-15T12:50:58.504Z,18.24
2022-09-15T12:56:10.442Z,18.39
2022-09-15T12:58:51.584Z,18.46
2022-09-15T13:01:19.146Z,18.54
2022-09-15T13:03:47.562Z,18.59
2022-09-15T13:06:29.064Z,18.66
2022-09-15T13:08:56.128Z,18.67
2022-09-15T13:11:42.372Z,18.66
2022-09-15T13:14:27.903Z,18.75
2022-09-15T13:17:10.131Z,18.84
2022-09-15T13:19:50.613Z,18.85
2022-09-15T13:22:44.287Z,18.87
2022-09-15T13:25:13.687Z,18.94
2022-09-15T13:27:43.119Z,19.06
2022-09-15T13:30:35.563Z,19.05
2022-09-15T13:40:28.259Z,18.60
2022-09-15T13:43:41.089Z,18.45
2022-09-15T13:46:18.492Z,18.30
2022-09-15T13:49:03.616Z,18.23
2022-09-15T13:51:33.882Z,18.24
2022-09-15T13:54:07.038Z,18.27
2022-09-15T13:56:44.441Z,18.34
2022-09-15T13:59:27.805Z,18.42
2022-09-15T14:01:56.779Z,18.36
2022-09-15T14:04:29.245Z,18.22
2022-09-15T14:07:01.418Z,18.12
2022-09-15T14:09:40.642Z,18.00
2022-09-15T14:12:12.431Z,17.91
2022-09-15T14:14:55.567Z,17.85
2022-09-15T14:17:28.781Z,17.86
2022-09-15T14:19:59.912Z,17.90
2022-09-15T14:22:35.184Z,17.98
2022-09-15T14:25:14.203Z,18.13
2022-09-15T14:27:46.774Z,18.25
2022-09-15T14:30:20.754Z,18.36
2022-09-15T14:32:54.918Z,18.48
2022-09-15T14:35:31.764Z,18.50
2022-09-15T14:38:00.610Z,18.42
2022-09-15T14:40:29.295Z,18.26
2022-09-15T14:42:58.237Z,18.16
2022-09-15T14:46:03.000Z,18.05
2022-09-15T14:48:28.250Z,17.99
2022-09-15T14:51:04.659Z,17.94
2022-09-15T14:53:37.927Z,17.87
2022-09-15T14:56:25.049Z,17.80
2022-09-15T14:58:59.570Z,17.78
2022-09-15T15:01:42.954Z,17.79
2022-09-15T15:04:28.130Z,17.82
2022-09-15T15:07:25.608Z,17.83
2022-09-15T15:10:00.504Z,17.83
2022-09-15T15:12:54.831Z,17.79
2022-09-15T15:15:22.870Z,17.76
2022-09-15T15:17:54.723Z,17.68
2022-09-15T15:20:30.275Z,17.61
2022-09-15T15:23:18.711Z,17.58
2022-09-15T15:25:49.044Z,17.56
2022-09-15T15:28:39.458Z,17.53
2022-09-15T15:31:25.816Z,17.45
2022-09-15T15:34:06.326Z,17.42
2022-09-15T15:36:35.887Z,17.37
2022-09-15T15:39:07.976Z,17.35
2022-09-15T15:41:40.960Z,17.29
2022-09-15T15:44:28.620Z,17.26
2022-09-15T15:47:24.154Z,17.28
2022-09-15T15:50:15.867Z,17.27
2022-09-15T15:52:44.031Z,17.24
2022-09-15T15:55:23.250Z,17.23
2022-09-15T15:57:54.243Z,17.22
2022-09-15T16:00:31.869Z,17.18
2022-09-15T16:02:59.010Z,17.15
2022-09-15T16:05:29.279Z,17.12
2022-09-15T16:08:01.742Z,17.07
2022-09-15T16:10:38.778Z,17.00
2022-09-15T16:13:06.337Z,16.91
2022-09-15T16:15:33.932Z,16.84
2022-09-15T16:18:01.167Z,16.79
2022-09-15T16:20:29.074Z,16.71
2022-09-15T16:22:57.165Z,16.65
2022-09-15T16:26:00.098Z,16.58
2022-09-15T16:28:28.698Z,16.52
2022-09-15T16:30:56.883Z,16.47
2022-09-15T16:33:25.266Z,16.44
2022-09-15T16:36:03.784Z,16.40
2022-09-15T16:38:31.104Z,16.34
2022-09-15T16:40:58.298Z,16.27
2022-09-15T16:43:25.696Z,16.19
2022-09-15T16:45:53.109Z,16.09
2022-09-15T16:48:21.488Z,16.02
2022-09-15T16:51:08.403Z,15.96
2022-09-15T16:53:41.186Z,15.92
2022-09-15T16:56:12.459Z,15.88
2022-09-15T16:58:40.454Z,15.84
2022-09-15T17:01:17.119Z,15.81
2022-09-15T17:03:44.963Z,15.77
2022-09-15T17:06:14.463Z,15.74
2022-09-15T17:08:41.874Z,15.69
2022-09-15T17:11:20.574Z,15.65
2022-09-15T17:13:48.078Z,15.60
2022-09-15T17:16:19.769Z,15.55
2022-09-15T17:18:50.577Z,15.52
2022-09-15T17:21:18.609Z,15.45
2022-09-15T17:23:49.325Z,15.41
2022-09-15T17:26:23.963Z,15.34
2022-09-15T17:28:52.854Z,15.27
2022-09-15T17:31:23.182Z,15.24
2022-09-15T17:33:51.369Z,15.19
2022-09-15T17:36:18.796Z,15.16
2022-09-15T17:38:48.044Z,15.11
2022-09-15T17:41:18.849Z,15.05
2022-09-15T17:43:46.350Z,14.96
2022-09-15T17:46:13.679Z,14.93
2022-09-15T17:48:41.062Z,14.86
2022-09-15T17:51:15.051Z,14.79
2022-09-15T17:53:42.726Z,14.74
2022-09-15T17:56:09.985Z,14.66
2022-09-15T17:58:37.150Z,14.59
2022-09-15T18:01:04.530Z,14.52
2022-09-15T18:03:37.140Z,14.46
2022-09-15T18:06:08.195Z,14.40
2022-09-15T18:08:36.210Z,14.34
2022-09-15T18:11:05.833Z,14.30
2022-09-15T18:13:34.081Z,14.25
2022-09-15T18:16:13.017Z,14.20
2022-09-15T18:18:41.041Z,14.15
2022-09-15T18:21:16.779Z,14.13
2022-09-15T18:23:45.085Z,14.09
2022-09-15T18:26:12.312Z,14.06
2022-09-15T18:28:39.444Z,14.02
2022-09-15T18:31:06.895Z,13.99
2022-09-15T18:33:34.187Z,13.98
2022-09-15T18:36:01.748Z,13.94
2022-09-15T18:38:29.078Z,13.92
2022-09-15T18:40:56.958Z,13.88
2022-09-15T18:43:27.667Z,13.84
2022-09-15T18:46:00.239Z,13.81
2022-09-15T18:48:28.667Z,13.79
2022-09-15T18:50:56.270Z,13.75
2022-09-15T18:53:23.917Z,13.73
2022-09-15T18:55:51.117Z,13.71
2022-09-15T18:58:19.249Z,13.70
2022-09-15T19:00:46.599Z,13.69
2022-09-15T19:03:14.310Z,13.68
2022-09-15T19:05:41.819Z,13.68
2022-09-15T19:08:10.922Z,13.70
2022-09-15T19:10:40.712Z,13.72
2022-09-15T19:13:09.923Z,13.74
2022-09-15T19:15:40.288Z,13.75
2022-09-15T19:18:07.485Z,13.74
2022-09-15T19:20:34.655Z,13.72
2022-09-15T19:23:01.793Z,13.73
2022-09-15T19:25:29.050Z,13.72
2022-09-15T19:27:56.421Z,13.72
2022-09-15T19:30:23.827Z,13.72
2022-09-15T19:32:51.545Z,13.73
2022-09-15T19:35:19.170Z,13.74
2022-09-15T19:37:46.411Z,13.73
2022-09-15T19:40:14.421Z,13.72
2022-09-15T19:42:44.104Z,13.71
2022-09-15T19:45:13.089Z,13.71
2022-09-15T19:47:40.988Z,13.73
2022-09-15T19:50:11.582Z,13.72
2022-09-15T19:52:39.333Z,13.70
2022-09-15T19:55:09.608Z,13.68
2022-09-15T19:57:42.037Z,13.67
2022-09-15T20:00:12.635Z,13.63
2022-09-15T20:02:40.244Z,13.60
2022-09-15T20:05:08.873Z,13.59
2022-09-15T20:07:36.676Z,13.55
2022-09-15T20:10:05.168Z,13.51
2022-09-15T20:12:32.391Z,13.46
2022-09-15T20:14:59.557Z,13.40
2022-09-15T20:17:27.792Z,13.35
2022-09-15T20:19:55.221Z,13.29
2022-09-15T20:22:22.928Z,13.26
2022-09-15T20:24:50.319Z,13.22
2022-09-15T20:27:17.559Z,13.20
2022-09-15T20:29:44.788Z,13.15
2022-09-15T20:32:11.934Z,13.11
2022-09-15T20:34:39.188Z,13.06
2022-09-15T20:37:06.891Z,13.06
2022-09-15T20:39:34.012Z,13.05
2022-09-15T20:42:01.183Z,13.05
2022-09-15T20:44:28.257Z,13.06
2022-09-15T20:46:55.512Z,13.06
2022-09-15T20:49:22.667Z,13.06
2022-09-15T20:51:51.663Z,13.07
2022-09-15T20:54:18.901Z,13.07
2022-09-15T20:56:46.140Z,13.07
2022-09-15T20:59:14.399Z,13.09
2022-09-15T21:01:41.932Z,13.08
2022-09-15T21:04:10.491Z,13.08
2022-09-15T21:06:37.986Z,13.07
2022-09-15T21:09:06.743Z,13.05
2022-09-15T21:11:34.182Z,13.05
2022-09-15T21:14:01.731Z,13.05
2022-09-15T21:16:29.479Z,13.07
2022-09-15T21:18:58.592Z,13.09
2022-09-15T21:21:30.203Z,13.11
2022-09-15T21:24:01.877Z,13.13
2022-09-15T21:26:32.948Z,13.08
2022-09-15T21:29:01.000Z,13.05
2022-09-15T21:31:31.420Z,13.02
2022-09-15T21:33:59.481Z,12.99
2022-09-15T21:36:30.012Z,12.95
2022-09-15T21:38:59.218Z,12.94
2022-09-15T21:41:31.684Z,12.93
2022-09-15T21:44:00.676Z,12.94
2022-09-15T21:46:30.522Z,12.93
2022-09-15T21:48:59.733Z,12.92
2022-09-15T21:51:29.206Z,12.91
2022-09-15T21:53:58.845Z,12.93
2022-09-15T21:56:28.261Z,12.93
2022-09-15T21:58:55.764Z,12.91
2022-09-15T22:01:32.209Z,12.91
2022-09-15T22:04:00.135Z,12.90
2022-09-15T22:06:32.180Z,12.90
2022-09-15T22:09:06.037Z,12.90
2022-09-15T22:11:33.600Z,12.89
2022-09-15T22:14:03.039Z,12.89
2022-09-15T22:16:30.573Z,12.88
2022-09-15T22:18:57.826Z,12.89
2022-09-15T22:21:28.556Z,12.88
2022-09-15T22:23:59.013Z,12.85
2022-09-15T22:26:29.480Z,12.83
2022-09-15T22:28:59.112Z,12.80
2022-09-15T22:31:27.690Z,12.79
2022-09-15T22:33:55.566Z,12.76
2022-09-15T22:36:29.725Z,12.72
2022-09-15T22:39:04.828Z,12.70
2022-09-15T22:41:35.921Z,12.68
2022-09-15T22:44:04.996Z,12.66
2022-09-15T22:46:32.752Z,12.65
2022-09-15T22:49:00.025Z,12.65
2022-09-15T22:51:27.506Z,12.64
2022-09-15T22:53:57.189Z,12.63
2022-09-15T22:56:26.391Z,12.62
2022-09-15T22:58:55.083Z,12.59
2022-09-15T23:01:26.991Z,12.55
2022-09-15T23:04:00.704Z,12.53
2022-09-15T23:06:33.562Z,12.50
2022-09-15T23:09:05.262Z,12.47
2022-09-15T23:11:33.167Z,12.44
2022-09-15T23:14:01.566Z,12.39
2022-09-15T23:16:30.661Z,12.36
2022-09-15T23:18:58.673Z,12.33
2022-09-15T23:21:26.052Z,12.30
2022-09-15T23:23:54.327Z,12.29
2022-09-15T23:26:23.861Z,12.30
2022-09-15T23:28:51.813Z,12.30
2022-09-15T23:31:19.752Z,12.31
2022-09-15T23:33:47.797Z,12.31
2022-09-15T23:36:19.689Z,12.30
2022-09-15T23:38:49.591Z,12.29
2022-09-15T23:41:18.303Z,12.27
2022-09-15T23:43:46.360Z,12.23
2022-09-15T23:46:13.997Z,12.24
2022-09-15T23:48:41.611Z,12.20
2022-09-15T23:51:08.982Z,12.17
2022-09-15T23:53:36.227Z,12.13
2022-09-15T23:56:03.616Z,12.10
2022-09-15T23:58:30.932Z,12.09
